sensor_id;sensor_type;location;lat;lon;timestamp;P1;durP1;ratioP1;P2;durP2;ratioP2
31270;SDS011;17904;47.420;9.310;2022-09-20T00:00:46;2.95;;;1.27;;
31270;SDS011;17904;47.420;9.310;2022-09-20T00:03:13;2.83;;;1.55;;
31270;SDS011;17904;47.420;9.310;2022-09-20T00:05:42;2.38;;;1.17;;
31270;SDS011;17904;47.420;9.310;2022-09-20T00:08:11;4.00;;;1.48;;
31270;SDS011;17904;47.420;9.310;2022-09-20T00:10:40;1.98;;;1.25;;
31270;SDS011;17904;47.420;9.310;2022-09-20T00:13:09;2.72;;;1.17;;
31270;SDS011;17904;47.420;9.310;2022-09-20T00:15:42;5.00;;;1.67;;
31270;SDS011;17904;47.420;9.310;2022-09-20T00:18:10;5.47;;;1.92;;
31270;SDS011;17904;47.420;9.310;2022-09-20T00:20:44;5.85;;;1.70;;
31270;SDS011;17904;47.420;9.310;2022-09-20T00:23:11;5.57;;;1.60;;
31270;SDS011;17904;47.420;9.310;2022-09-20T00:25:39;3.03;;;1.48;;
31270;SDS011;17904;47.420;9.310;2022-09-20T00:28:06;2.75;;;1.52;;
31270;SDS011;17904;47.420;9.310;2022-09-20T00:30:33;4.90;;;1.63;;
31270;SDS011;17904;47.420;9.310;2022-09-20T00:33:00;5.20;;;1.40;;
31270;SDS011;17904;47.420;9.310;2022-09-20T00:35:28;3.15;;;1.23;;
31270;SDS011;17904;47.420;9.310;2022-09-20T00:37:56;12.93;;;2.15;;
31270;SDS011;17904;47.420;9.310;2022-09-20T00:40:23;5.60;;;1.88;;
31270;SDS011;17904;47.420;9.310;2022-09-20T00:42:52;5.43;;;1.48;;
31270;SDS011;17904;47.420;9.310;2022-09-20T00:45:23;2.58;;;1.52;;
31270;SDS011;17904;47.420;9.310;2022-09-20T00:47:56;2.45;;;1.58;;
31270;SDS011;17904;47.420;9.310;2022-09-20T00:53:17;3.75;;;1.45;;
31270;SDS011;17904;47.420;9.310;2022-09-20T00:56:02;8.23;;;1.60;;
31270;SDS011;17904;47.420;9.310;2022-09-20T00:58:36;5.78;;;1.48;;
31270;SDS011;17904;47.420;9.310;2022-09-20T01:01:06;4.72;;;1.63;;
31270;SDS011;17904;47.420;9.310;2022-09-20T01:03:33;2.45;;;1.30;;
31270;SDS011;17904;47.420;9.310;2022-09-20T01:06:05;2.97;;;1.23;;
31270;SDS011;17904;47.420;9.310;2022-09-20T01:08:36;8.52;;;1.42;;
31270;SDS011;17904;47.420;9.310;2022-09-20T01:11:05;3.28;;;1.30;;
31270;SDS011;17904;47.420;9.310;2022-09-20T01:13:31;3.00;;;1.20;;
31270;SDS011;17904;47.420;9.310;2022-09-20T01:15:58;4.72;;;1.80;;
31270;SDS011;17904;47.420;9.310;2022-09-20T01:18:27;1.95;;;1.10;;
31270;SDS011;17904;47.420;9.310;2022-09-20T01:20:57;8.30;;;1.63;;
31270;SDS011;17904;47.420;9.310;2022-09-20T01:28:58;7.22;;;1.85;;
31270;SDS011;17904;47.420;9.310;2022-09-20T01:31:32;9.52;;;1.80;;
31270;SDS011;17904;47.420;9.310;2022-09-20T01:34:10;2.38;;;1.30;;
31270;SDS011;17904;47.420;9.310;2022-09-20T01:36:43;3.65;;;1.30;;
31270;SDS011;17904;47.420;9.310;2022-09-20T01:42:37;8.35;;;1.40;;
31270;SDS011;17904;47.420;9.310;2022-09-20T01:45:16;3.85;;;1.45;;
31270;SDS011;17904;47.420;9.310;2022-09-20T01:48:15;4.70;;;1.40;;
31270;SDS011;17904;47.420;9.310;2022-09-20T02:09:51;5.15;;;1.63;;
31270;SDS011;17904;47.420;9.310;2022-09-20T02:15:30;5.68;;;1.70;;
31270;SDS011;17904;47.420;9.310;2022-09-20T02:27:05;4.18;;;0.98;;
31270;SDS011;17904;47.420;9.310;2022-09-20T02:35:10;2.67;;;1.48;;
31270;SDS011;17904;47.420;9.310;2022-09-20T02:41:07;1.73;;;1.20;;
31270;SDS011;17904;47.420;9.310;2022-09-20T02:43:42;2.97;;;1.08;;
31270;SDS011;17904;47.420;9.310;2022-09-20T02:46:16;1.63;;;1.30;;
31270;SDS011;17904;47.420;9.310;2022-09-20T02:49:05;4.57;;;1.23;;
31270;SDS011;17904;47.420;9.310;2022-09-20T02:51:40;3.72;;;0.90;;
31270;SDS011;17904;47.420;9.310;2022-09-20T02:57:05;2.25;;;0.88;;
31270;SDS011;17904;47.420;9.310;2022-09-20T03:03:35;6.05;;;1.25;;
31270;SDS011;17904;47.420;9.310;2022-09-20T03:14:54;2.42;;;1.00;;
31270;SDS011;17904;47.420;9.310;2022-09-20T03:25:56;6.68;;;1.33;;
31270;SDS011;17904;47.420;9.310;2022-09-20T03:37:44;6.43;;;1.10;;
31270;SDS011;17904;47.420;9.310;2022-09-20T03:46:19;4.25;;;1.63;;
31270;SDS011;17904;47.420;9.310;2022-09-20T03:57:27;1.88;;;1.00;;
31270;SDS011;17904;47.420;9.310;2022-09-20T04:00:17;5.85;;;1.60;;
31270;SDS011;17904;47.420;9.310;2022-09-20T04:06:00;2.05;;;1.40;;
31270;SDS011;17904;47.420;9.310;2022-09-20T04:11:51;3.35;;;1.40;;
31270;SDS011;17904;47.420;9.310;2022-09-20T04:20:41;5.82;;;1.40;;
31270;SDS011;17904;47.420;9.310;2022-09-20T04:26:00;2.70;;;1.52;;
31270;SDS011;17904;47.420;9.310;2022-09-20T04:28:42;5.82;;;1.60;;
31270;SDS011;17904;47.420;9.310;2022-09-20T04:31:26;4.80;;;1.75;;
31270;SDS011;17904;47.420;9.310;2022-09-20T04:34:03;2.13;;;1.55;;
31270;SDS011;17904;47.420;9.310;2022-09-20T04:36:58;1.48;;;1.33;;
31270;SDS011;17904;47.420;9.310;2022-09-20T04:39:38;3.83;;;1.38;;
31270;SDS011;17904;47.420;9.310;2022-09-20T04:50:49;6.50;;;2.20;;
31270;SDS011;17904;47.420;9.310;2022-09-20T04:59:07;3.78;;;1.58;;
31270;SDS011;17904;47.420;9.310;2022-09-20T05:15:37;3.10;;;1.30;;
31270;SDS011;17904;47.420;9.310;2022-09-20T05:18:18;1.83;;;1.10;;
31270;SDS011;17904;47.420;9.310;2022-09-20T05:21:16;4.78;;;1.73;;
31270;SDS011;17904;47.420;9.310;2022-09-20T05:24:06;4.03;;;1.80;;
31270;SDS011;17904;47.420;9.310;2022-09-20T05:26:55;3.38;;;1.58;;
31270;SDS011;17904;47.420;9.310;2022-09-20T05:29:39;3.38;;;1.60;;
31270;SDS011;17904;47.420;9.310;2022-09-20T05:35:32;1.83;;;1.20;;
31270;SDS011;17904;47.420;9.310;2022-09-20T05:46:38;3.10;;;1.38;;
31270;SDS011;17904;47.420;9.310;2022-09-20T05:49:19;4.70;;;1.80;;
31270;SDS011;17904;47.420;9.310;2022-09-20T05:52:03;1.70;;;1.17;;
31270;SDS011;17904;47.420;9.310;2022-09-20T05:55:02;3.60;;;1.38;;
31270;SDS011;17904;47.420;9.310;2022-09-20T06:00:39;2.28;;;1.48;;
31270;SDS011;17904;47.420;9.310;2022-09-20T06:03:14;7.95;;;2.45;;
31270;SDS011;17904;47.420;9.310;2022-09-20T06:09:06;6.47;;;1.80;;
31270;SDS011;17904;47.420;9.310;2022-09-20T06:17:35;2.95;;;1.67;;
31270;SDS011;17904;47.420;9.310;2022-09-20T06:22:45;2.65;;;1.90;;
31270;SDS011;17904;47.420;9.310;2022-09-20T06:25:20;6.00;;;2.47;;
31270;SDS011;17904;47.420;9.310;2022-09-20T06:27:52;8.23;;;2.95;;
31270;SDS011;17904;47.420;9.310;2022-09-20T06:30:24;3.65;;;2.17;;
31270;SDS011;17904;47.420;9.310;2022-09-20T06:32:59;8.73;;;3.00;;
31270;SDS011;17904;47.420;9.310;2022-09-20T06:35:40;5.78;;;2.13;;
31270;SDS011;17904;47.420;9.310;2022-09-20T06:41:00;4.30;;;2.08;;
31270;SDS011;17904;47.420;9.310;2022-09-20T06:43:47;4.13;;;2.72;;
31270;SDS011;17904;47.420;9.310;2022-09-20T06:46:15;12.68;;;2.90;;
31270;SDS011;17904;47.420;9.310;2022-09-20T06:48:42;6.10;;;2.35;;
31270;SDS011;17904;47.420;9.310;2022-09-20T06:51:09;9.65;;;2.10;;
31270;SDS011;17904;47.420;9.310;2022-09-20T06:53:36;5.53;;;2.20;;
31270;SDS011;17904;47.420;9.310;2022-09-20T06:56:11;8.30;;;2.33;;
31270;SDS011;17904;47.420;9.310;2022-09-20T06:58:42;5.97;;;2.17;;
31270;SDS011;17904;47.420;9.310;2022-09-20T07:03:36;7.63;;;2.72;;
31270;SDS011;17904;47.420;9.310;2022-09-20T07:08:29;2.95;;;2.10;;
31270;SDS011;17904;47.420;9.310;2022-09-20T07:13:27;5.93;;;1.80;;
31270;SDS011;17904;47.420;9.310;2022-09-20T07:16:04;6.50;;;2.22;;
31270;SDS011;17904;47.420;9.310;2022-09-20T07:18:32;2.75;;;1.50;;
31270;SDS011;17904;47.420;9.310;2022-09-20T07:21:00;7.07;;;1.92;;
31270;SDS011;17904;47.420;9.310;2022-09-20T07:23:27;8.95;;;2.55;;
31270;SDS011;17904;47.420;9.310;2022-09-20T07:25:55;3.80;;;2.35;;
31270;SDS011;17904;47.420;9.310;2022-09-20T07:28:26;6.85;;;2.15;;
31270;SDS011;17904;47.420;9.310;2022-09-20T07:30:55;5.15;;;2.03;;
31270;SDS011;17904;47.420;9.310;2022-09-20T07:33:22;2.88;;;1.85;;
31270;SDS011;17904;47.420;9.310;2022-09-20T07:35:50;3.83;;;1.90;;
31270;SDS011;17904;47.420;9.310;2022-09-20T07:38:21;6.43;;;2.13;;
31270;SDS011;17904;47.420;9.310;2022-09-20T07:40:58;5.00;;;2.17;;
31270;SDS011;17904;47.420;9.310;2022-09-20T07:43:26;8.27;;;2.17;;
31270;SDS011;17904;47.420;9.310;2022-09-20T07:45:54;8.05;;;2.55;;
31270;SDS011;17904;47.420;9.310;2022-09-20T07:48:33;5.18;;;2.63;;
31270;SDS011;17904;47.420;9.310;2022-09-20T07:51:02;2.78;;;2.10;;
31270;SDS011;17904;47.420;9.310;2022-09-20T07:53:34;6.10;;;2.42;;
31270;SDS011;17904;47.420;9.310;2022-09-20T07:56:05;7.45;;;3.15;;
31270;SDS011;17904;47.420;9.310;2022-09-20T07:58:35;4.28;;;2.08;;
31270;SDS011;17904;47.420;9.310;2022-09-20T08:01:04;4.80;;;1.88;;
31270;SDS011;17904;47.420;9.310;2022-09-20T08:03:33;8.48;;;2.17;;
31270;SDS011;17904;47.420;9.310;2022-09-20T08:06:04;4.63;;;1.70;;
31270;SDS011;17904;47.420;9.310;2022-09-20T08:08:34;6.00;;;2.03;;
31270;SDS011;17904;47.420;9.310;2022-09-20T08:11:04;4.60;;;1.77;;
31270;SDS011;17904;47.420;9.310;2022-09-20T08:13:37;11.88;;;2.25;;
31270;SDS011;17904;47.420;9.310;2022-09-20T08:16:25;9.25;;;1.98;;
31270;SDS011;17904;47.420;9.310;2022-09-20T08:18:54;11.68;;;1.98;;
31270;SDS011;17904;47.420;9.310;2022-09-20T08:21:26;3.78;;;1.10;;
31270;SDS011;17904;47.420;9.310;2022-09-20T08:23:57;10.77;;;1.60;;
31270;SDS011;17904;47.420;9.310;2022-09-20T08:26:26;3.20;;;1.10;;
31270;SDS011;17904;47.420;9.310;2022-09-20T08:28:55;2.55;;;1.27;;
31270;SDS011;17904;47.420;9.310;2022-09-20T08:31:27;8.25;;;1.45;;
31270;SDS011;17904;47.420;9.310;2022-09-20T08:34:05;13.73;;;1.73;;
31270;SDS011;17904;47.420;9.310;2022-09-20T08:36:36;10.68;;;1.85;;
31270;SDS011;17904;47.420;9.310;2022-09-20T08:39:07;8.15;;;1.48;;
31270;SDS011;17904;47.420;9.310;2022-09-20T08:44:48;8.68;;;2.25;;
31270;SDS011;17904;47.420;9.310;2022-09-20T08:47:28;7.00;;;2.27;;
31270;SDS011;17904;47.420;9.310;2022-09-20T08:49:58;6.32;;;2.03;;
31270;SDS011;17904;47.420;9.310;2022-09-20T08:52:35;8.00;;;2.03;;
31270;SDS011;17904;47.420;9.310;2022-09-20T08:55:13;7.20;;;1.60;;
31270;SDS011;17904;47.420;9.310;2022-09-20T08:57:44;8.00;;;1.60;;
31270;SDS011;17904;47.420;9.310;2022-09-20T09:00:18;8.55;;;1.95;;
31270;SDS011;17904;47.420;9.310;2022-09-20T09:02:46;4.97;;;1.70;;
31270;SDS011;17904;47.420;9.310;2022-09-20T09:05:40;6.90;;;1.83;;
31270;SDS011;17904;47.420;9.310;2022-09-20T09:08:23;7.65;;;1.65;;
31270;SDS011;17904;47.420;9.310;2022-09-20T09:10:58;5.78;;;1.40;;
31270;SDS011;17904;47.420;9.310;2022-09-20T09:16:20;7.00;;;2.42;;
31270;SDS011;17904;47.420;9.310;2022-09-20T09:22:09;5.93;;;1.60;;
31270;SDS011;17904;47.420;9.310;2022-09-20T09:24:37;7.65;;;1.30;;
31270;SDS011;17904;47.420;9.310;2022-09-20T09:27:05;8.55;;;1.25;;
31270;SDS011;17904;47.420;9.310;2022-09-20T09:29:35;4.32;;;1.20;;
31270;SDS011;17904;47.420;9.310;2022-09-20T09:32:20;6.22;;;1.23;;
31270;SDS011;17904;47.420;9.310;2022-09-20T09:35:06;9.85;;;1.33;;
31270;SDS011;17904;47.420;9.310;2022-09-20T09:38:10;3.72;;;1.20;;
31270;SDS011;17904;47.420;9.310;2022-09-20T09:40:59;2.22;;;0.60;;
31270;SDS011;17904;47.420;9.310;2022-09-20T09:43:32;6.82;;;1.08;;
31270;SDS011;17904;47.420;9.310;2022-09-20T09:46:22;6.15;;;2.13;;
31270;SDS011;17904;47.420;9.310;2022-09-20T09:51:38;5.85;;;1.63;;
31270;SDS011;17904;47.420;9.310;2022-09-20T09:54:11;8.43;;;1.58;;
31270;SDS011;17904;47.420;9.310;2022-09-20T09:56:44;6.60;;;1.52;;
31270;SDS011;17904;47.420;9.310;2022-09-20T09:59:42;4.88;;;1.58;;
31270;SDS011;17904;47.420;9.310;2022-09-20T10:05:19;12.15;;;1.95;;
31270;SDS011;17904;47.420;9.310;2022-09-20T10:13:19;9.10;;;2.42;;
31270;SDS011;17904;47.420;9.310;2022-09-20T10:15:55;9.68;;;3.17;;
31270;SDS011;17904;47.420;9.310;2022-09-20T10:24:10;6.60;;;2.70;;
31270;SDS011;17904;47.420;9.310;2022-09-20T10:30:07;8.68;;;2.80;;
31270;SDS011;17904;47.420;9.310;2022-09-20T10:40:53;9.07;;;2.90;;
31270;SDS011;17904;47.420;9.310;2022-09-20T10:49:34;10.05;;;3.08;;
31270;SDS011;17904;47.420;9.310;2022-09-20T10:54:46;6.95;;;1.70;;
31270;SDS011;17904;47.420;9.310;2022-09-20T10:57:52;8.73;;;3.42;;
31270;SDS011;17904;47.420;9.310;2022-09-20T11:03:02;6.22;;;2.05;;
31270;SDS011;17904;47.420;9.310;2022-09-20T11:08:10;6.93;;;2.70;;
31270;SDS011;17904;47.420;9.310;2022-09-20T11:13:18;6.22;;;2.58;;
31270;SDS011;17904;47.420;9.310;2022-09-20T11:18:47;10.50;;;2.35;;
31270;SDS011;17904;47.420;9.310;2022-09-20T11:21:25;10.38;;;2.28;;
31270;SDS011;17904;47.420;9.310;2022-09-20T11:26:43;5.18;;;2.10;;
31270;SDS011;17904;47.420;9.310;2022-09-20T11:32:08;15.57;;;2.65;;
31270;SDS011;17904;47.420;9.310;2022-09-20T11:34:54;8.77;;;2.80;;
31270;SDS011;17904;47.420;9.310;2022-09-20T11:37:32;9.52;;;1.92;;
31270;SDS011;17904;47.420;9.310;2022-09-20T11:40:07;5.50;;;1.67;;
31270;SDS011;17904;47.420;9.310;2022-09-20T11:42:44;7.63;;;2.45;;
31270;SDS011;17904;47.420;9.310;2022-09-20T11:45:12;7.30;;;1.88;;
31270;SDS011;17904;47.420;9.310;2022-09-20T11:50:33;11.35;;;2.88;;
31270;SDS011;17904;47.420;9.310;2022-09-20T11:56:17;8.38;;;1.92;;
31270;SDS011;17904;47.420;9.310;2022-09-20T11:58:50;7.60;;;2.30;;
31270;SDS011;17904;47.420;9.310;2022-09-20T12:01:24;4.90;;;2.30;;
31270;SDS011;17904;47.420;9.310;2022-09-20T12:03:59;4.80;;;2.00;;
31270;SDS011;17904;47.420;9.310;2022-09-20T12:07:05;5.22;;;2.00;;
31270;SDS011;17904;47.420;9.310;2022-09-20T12:09:45;7.38;;;2.47;;
31270;SDS011;17904;47.420;9.310;2022-09-20T12:15:04;2.50;;;1.58;;
31270;SDS011;17904;47.420;9.310;2022-09-20T12:28:49;2.80;;;1.20;;
31270;SDS011;17904;47.420;9.310;2022-09-20T12:36:28;5.15;;;1.73;;
31270;SDS011;17904;47.420;9.310;2022-09-20T12:41:43;6.25;;;2.20;;
31270;SDS011;17904;47.420;9.310;2022-09-20T12:47:33;6.85;;;2.33;;
31270;SDS011;17904;47.420;9.310;2022-09-20T12:49:51;5.32;;;1.80;;
31270;SDS011;17904;47.420;9.310;2022-09-20T12:57:53;9.25;;;2.08;;
31270;SDS011;17904;47.420;9.310;2022-09-20T13:05:50;5.35;;;1.83;;
31270;SDS011;17904;47.420;9.310;2022-09-20T13:11:36;5.90;;;2.50;;
31270;SDS011;17904;47.420;9.310;2022-09-20T13:19:48;4.80;;;2.08;;
31270;SDS011;17904;47.420;9.310;2022-09-20T13:22:18;4.10;;;1.90;;
31270;SDS011;17904;47.420;9.310;2022-09-20T13:24:49;8.02;;;2.00;;
31270;SDS011;17904;47.420;9.310;2022-09-20T13:27:34;6.22;;;2.03;;
31270;SDS011;17904;47.420;9.310;2022-09-20T13:32:42;9.40;;;1.90;;
31270;SDS011;17904;47.420;9.310;2022-09-20T13:43:05;9.50;;;2.10;;
31270;SDS011;17904;47.420;9.310;2022-09-20T13:45:57;8.10;;;2.33;;
31270;SDS011;17904;47.420;9.310;2022-09-20T13:48:34;4.38;;;1.70;;
31270;SDS011;17904;47.420;9.310;2022-09-20T13:51:01;11.75;;;2.00;;
31270;SDS011;17904;47.420;9.310;2022-09-20T13:53:29;10.32;;;1.95;;
31270;SDS011;17904;47.420;9.310;2022-09-20T13:56:10;5.75;;;2.15;;
31270;SDS011;17904;47.420;9.310;2022-09-20T13:58:46;8.55;;;2.42;;
31270;SDS011;17904;47.420;9.310;2022-09-20T14:01:33;9.40;;;2.58;;
31270;SDS011;17904;47.420;9.310;2022-09-20T14:04:04;8.45;;;2.00;;
31270;SDS011;17904;47.420;9.310;2022-09-20T14:06:33;10.00;;;2.47;;
31270;SDS011;17904;47.420;9.310;2022-09-20T14:09:02;9.05;;;1.73;;
31270;SDS011;17904;47.420;9.310;2022-09-20T14:11:36;4.82;;;2.40;;
31270;SDS011;17904;47.420;9.310;2022-09-20T14:14:05;6.00;;;2.10;;
31270;SDS011;17904;47.420;9.310;2022-09-20T14:16:34;5.47;;;2.10;;
31270;SDS011;17904;47.420;9.310;2022-09-20T14:19:04;5.30;;;2.13;;
31270;SDS011;17904;47.420;9.310;2022-09-20T14:21:39;7.47;;;1.92;;
31270;SDS011;17904;47.420;9.310;2022-09-20T14:24:12;8.95;;;2.22;;
31270;SDS011;17904;47.420;9.310;2022-09-20T14:27:04;5.22;;;1.65;;
31270;SDS011;17904;47.420;9.310;2022-09-20T14:29:45;7.72;;;2.20;;
31270;SDS011;17904;47.420;9.310;2022-09-20T14:37:23;5.93;;;1.92;;
31270;SDS011;17904;47.420;9.310;2022-09-20T14:39:54;5.18;;;2.25;;
31270;SDS011;17904;47.420;9.310;2022-09-20T14:45:02;10.80;;;2.78;;
31270;SDS011;17904;47.420;9.310;2022-09-20T14:47:37;8.50;;;2.20;;
31270;SDS011;17904;47.420;9.310;2022-09-20T14:50:28;5.43;;;2.25;;
31270;SDS011;17904;47.420;9.310;2022-09-20T14:58:29;5.43;;;1.65;;
31270;SDS011;17904;47.420;9.310;2022-09-20T15:03:48;4.97;;;1.80;;
31270;SDS011;17904;47.420;9.310;2022-09-20T15:06:15;6.18;;;1.98;;
31270;SDS011;17904;47.420;9.310;2022-09-20T15:11:18;5.32;;;2.35;;
31270;SDS011;17904;47.420;9.310;2022-09-20T15:13:45;10.07;;;1.90;;
31270;SDS011;17904;47.420;9.310;2022-09-20T15:21:08;9.13;;;2.05;;
31270;SDS011;17904;47.420;9.310;2022-09-20T15:23:38;3.45;;;1.77;;
31270;SDS011;17904;47.420;9.310;2022-09-20T15:26:06;3.65;;;1.75;;
31270;SDS011;17904;47.420;9.310;2022-09-20T15:28:35;4.47;;;1.83;;
31270;SDS011;17904;47.420;9.310;2022-09-20T15:31:02;5.13;;;1.85;;
31270;SDS011;17904;47.420;9.310;2022-09-20T15:35:57;8.32;;;1.80;;
31270;SDS011;17904;47.420;9.310;2022-09-20T15:38:24;2.80;;;1.42;;
31270;SDS011;17904;47.420;9.310;2022-09-20T15:40:52;5.45;;;1.98;;
31270;SDS011;17904;47.420;9.310;2022-09-20T15:43:21;5.68;;;1.55;;
31270;SDS011;17904;47.420;9.310;2022-09-20T15:45:53;3.42;;;1.77;;
31270;SDS011;17904;47.420;9.310;2022-09-20T15:48:22;4.03;;;1.67;;
31270;SDS011;17904;47.420;9.310;2022-09-20T15:53:25;3.63;;;1.42;;
31270;SDS011;17904;47.420;9.310;2022-09-20T15:56:03;10.48;;;2.40;;
31270;SDS011;17904;47.420;9.310;2022-09-20T15:58:38;3.47;;;1.35;;
31270;SDS011;17904;47.420;9.310;2022-09-20T16:01:13;1.85;;;1.20;;
31270;SDS011;17904;47.420;9.310;2022-09-20T16:03:42;5.88;;;1.50;;
31270;SDS011;17904;47.420;9.310;2022-09-20T16:06:10;3.78;;;1.88;;
31270;SDS011;17904;47.420;9.310;2022-09-20T16:08:37;2.67;;;1.40;;
31270;SDS011;17904;47.420;9.310;2022-09-20T16:11:06;9.20;;;1.85;;
31270;SDS011;17904;47.420;9.310;2022-09-20T16:13:34;6.28;;;1.30;;
31270;SDS011;17904;47.420;9.310;2022-09-20T16:16:05;8.50;;;1.95;;
31270;SDS011;17904;47.420;9.310;2022-09-20T16:18:34;11.48;;;1.60;;
31270;SDS011;17904;47.420;9.310;2022-09-20T16:21:20;10.53;;;1.93;;
31270;SDS011;17904;47.420;9.310;2022-09-20T16:26:15;5.57;;;1.52;;
31270;SDS011;17904;47.420;9.310;2022-09-20T16:28:42;3.25;;;1.50;;
31270;SDS011;17904;47.420;9.310;2022-09-20T16:31:29;9.18;;;2.47;;
31270;SDS011;17904;47.420;9.310;2022-09-20T16:33:58;4.90;;;1.92;;
31270;SDS011;17904;47.420;9.310;2022-09-20T16:36:25;4.72;;;1.42;;
31270;SDS011;17904;47.420;9.310;2022-09-20T16:38:53;2.13;;;1.17;;
31270;SDS011;17904;47.420;9.310;2022-09-20T16:41:24;5.18;;;2.13;;
31270;SDS011;17904;47.420;9.310;2022-09-20T16:43:52;5.43;;;1.98;;
31270;SDS011;17904;47.420;9.310;2022-09-20T16:46:22;4.88;;;1.55;;
31270;SDS011;17904;47.420;9.310;2022-09-20T16:48:55;5.55;;;2.45;;
31270;SDS011;17904;47.420;9.310;2022-09-20T16:51:30;4.68;;;2.10;;
31270;SDS011;17904;47.420;9.310;2022-09-20T16:54:17;3.10;;;1.52;;
31270;SDS011;17904;47.420;9.310;2022-09-20T16:56:45;5.63;;;1.40;;
31270;SDS011;17904;47.420;9.310;2022-09-20T16:59:14;4.75;;;1.85;;
31270;SDS011;17904;47.420;9.310;2022-09-20T17:01:43;3.22;;;1.85;;
31270;SDS011;17904;47.420;9.310;2022-09-20T17:04:10;3.70;;;1.85;;
31270;SDS011;17904;47.420;9.310;2022-09-20T17:06:39;12.48;;;2.28;;
31270;SDS011;17904;47.420;9.310;2022-09-20T17:09:08;4.18;;;2.15;;
31270;SDS011;17904;47.420;9.310;2022-09-20T17:11:37;8.15;;;2.75;;
31270;SDS011;17904;47.420;9.310;2022-09-20T17:14:12;2.70;;;1.92;;
31270;SDS011;17904;47.420;9.310;2022-09-20T17:16:41;3.70;;;1.90;;
31270;SDS011;17904;47.420;9.310;2022-09-20T17:19:13;5.32;;;2.38;;
31270;SDS011;17904;47.420;9.310;2022-09-20T17:21:42;9.18;;;2.22;;
31270;SDS011;17904;47.420;9.310;2022-09-20T17:24:11;10.25;;;2.58;;
31270;SDS011;17904;47.420;9.310;2022-09-20T17:26:40;12.45;;;2.67;;
31270;SDS011;17904;47.420;9.310;2022-09-20T17:29:11;9.45;;;2.45;;
31270;SDS011;17904;47.420;9.310;2022-09-20T17:31:42;2.88;;;1.85;;
31270;SDS011;17904;47.420;9.310;2022-09-20T17:34:17;3.63;;;1.90;;
31270;SDS011;17904;47.420;9.310;2022-09-20T17:36:46;7.60;;;2.15;;
31270;SDS011;17904;47.420;9.310;2022-09-20T17:39:15;4.70;;;2.00;;
31270;SDS011;17904;47.420;9.310;2022-09-20T17:41:42;5.72;;;2.38;;
31270;SDS011;17904;47.420;9.310;2022-09-20T17:44:13;4.90;;;2.60;;
31270;SDS011;17904;47.420;9.310;2022-09-20T17:46:42;8.57;;;2.25;;
31270;SDS011;17904;47.420;9.310;2022-09-20T17:49:12;3.72;;;2.00;;
31270;SDS011;17904;47.420;9.310;2022-09-20T17:51:41;5.57;;;1.80;;
31270;SDS011;17904;47.420;9.310;2022-09-20T17:54:10;7.20;;;2.80;;
31270;SDS011;17904;47.420;9.310;2022-09-20T17:56:41;6.05;;;1.90;;
31270;SDS011;17904;47.420;9.310;2022-09-20T17:59:09;9.27;;;2.65;;
31270;SDS011;17904;47.420;9.310;2022-09-20T18:01:37;5.95;;;2.47;;
31270;SDS011;17904;47.420;9.310;2022-09-20T18:06:57;10.40;;;2.85;;
31270;SDS011;17904;47.420;9.310;2022-09-20T18:09:25;7.60;;;2.45;;
31270;SDS011;17904;47.420;9.310;2022-09-20T18:11:53;4.78;;;2.15;;
31270;SDS011;17904;47.420;9.310;2022-09-20T18:14:22;7.32;;;2.80;;
31270;SDS011;17904;47.420;9.310;2022-09-20T18:16:53;8.00;;;2.65;;
31270;SDS011;17904;47.420;9.310;2022-09-20T18:19:23;6.28;;;2.47;;
31270;SDS011;17904;47.420;9.310;2022-09-20T18:21:50;8.18;;;2.58;;
31270;SDS011;17904;47.420;9.310;2022-09-20T18:24:16;5.82;;;2.78;;
31270;SDS011;17904;47.420;9.310;2022-09-20T18:26:43;9.73;;;2.80;;
31270;SDS011;17904;47.420;9.310;2022-09-20T18:29:10;5.05;;;2.35;;
31270;SDS011;17904;47.420;9.310;2022-09-20T18:34:20;10.50;;;2.55;;
31270;SDS011;17904;47.420;9.310;2022-09-20T18:36:52;5.53;;;2.83;;
31270;SDS011;17904;47.420;9.310;2022-09-20T18:39:21;9.55;;;2.90;;
31270;SDS011;17904;47.420;9.310;2022-09-20T18:41:49;6.72;;;3.20;;
31270;SDS011;17904;47.420;9.310;2022-09-20T18:44:18;3.90;;;2.35;;
31270;SDS011;17904;47.420;9.310;2022-09-20T18:46:45;5.07;;;2.72;;
31270;SDS011;17904;47.420;9.310;2022-09-20T18:51:40;4.72;;;2.85;;
31270;SDS011;17904;47.420;9.310;2022-09-20T18:54:08;6.72;;;2.83;;
31270;SDS011;17904;47.420;9.310;2022-09-20T18:56:36;6.63;;;2.80;;
31270;SDS011;17904;47.420;9.310;2022-09-20T19:07:18;8.82;;;3.47;;
31270;SDS011;17904;47.420;9.310;2022-09-20T19:15:32;7.38;;;3.88;;
31270;SDS011;17904;47.420;9.310;2022-09-20T19:18:15;8.05;;;3.17;;
31270;SDS011;17904;47.420;9.310;2022-09-20T19:21:23;9.18;;;4.45;;
31270;SDS011;17904;47.420;9.310;2022-09-20T19:26:50;13.65;;;3.97;;
31270;SDS011;17904;47.420;9.310;2022-09-20T19:31:45;9.45;;;3.92;;
31270;SDS011;17904;47.420;9.310;2022-09-20T19:34:18;5.53;;;3.42;;
31270;SDS011;17904;47.420;9.310;2022-09-20T19:39:52;11.10;;;4.28;;
31270;SDS011;17904;47.420;9.310;2022-09-20T19:45:39;10.65;;;3.72;;
31270;SDS011;17904;47.420;9.310;2022-09-20T19:51:14;7.57;;;3.40;;
31270;SDS011;17904;47.420;9.310;2022-09-20T19:53:42;13.90;;;4.60;;
31270;SDS011;17904;47.420;9.310;2022-09-20T19:56:17;15.38;;;4.15;;
31270;SDS011;17904;47.420;9.310;2022-09-20T19:58:53;7.10;;;3.42;;
31270;SDS011;17904;47.420;9.310;2022-09-20T20:01:21;11.55;;;4.25;;
31270;SDS011;17904;47.420;9.310;2022-09-20T20:03:50;5.85;;;4.05;;
31270;SDS011;17904;47.420;9.310;2022-09-20T20:06:19;14.93;;;4.68;;
31270;SDS011;17904;47.420;9.310;2022-09-20T20:08:57;9.10;;;4.22;;
31270;SDS011;17904;47.420;9.310;2022-09-20T20:11:50;15.60;;;4.80;;
31270;SDS011;17904;47.420;9.310;2022-09-20T20:14:44;8.90;;;4.00;;
31270;SDS011;17904;47.420;9.310;2022-09-20T20:17:29;17.30;;;5.28;;
31270;SDS011;17904;47.420;9.310;2022-09-20T20:22:51;9.50;;;5.60;;
31270;SDS011;17904;47.420;9.310;2022-09-20T20:28:42;7.70;;;4.15;;
31270;SDS011;17904;47.420;9.310;2022-09-20T20:33:37;14.38;;;4.13;;
31270;SDS011;17904;47.420;9.310;2022-09-20T20:36:05;8.48;;;4.45;;
31270;SDS011;17904;47.420;9.310;2022-09-20T20:38:34;11.07;;;5.18;;
31270;SDS011;17904;47.420;9.310;2022-09-20T20:41:03;7.25;;;4.15;;
31270;SDS011;17904;47.420;9.310;2022-09-20T20:43:41;8.75;;;3.60;;
31270;SDS011;17904;47.420;9.310;2022-09-20T20:46:10;7.55;;;4.00;;
31270;SDS011;17904;47.420;9.310;2022-09-20T20:48:39;13.13;;;4.25;;
31270;SDS011;17904;47.420;9.310;2022-09-20T20:53:41;4.38;;;3.50;;
31270;SDS011;17904;47.420;9.310;2022-09-20T20:56:14;9.68;;;4.07;;
31270;SDS011;17904;47.420;9.310;2022-09-20T20:58:46;6.18;;;3.72;;
31270;SDS011;17904;47.420;9.310;2022-09-20T21:01:18;12.50;;;4.28;;
31270;SDS011;17904;47.420;9.310;2022-09-20T21:03:50;9.90;;;4.15;;
31270;SDS011;17904;47.420;9.310;2022-09-20T21:06:18;6.28;;;4.40;;
31270;SDS011;17904;47.420;9.310;2022-09-20T21:08:46;9.10;;;3.83;;
31270;SDS011;17904;47.420;9.310;2022-09-20T21:14:13;5.35;;;4.03;;
31270;SDS011;17904;47.420;9.310;2022-09-20T21:16:41;7.82;;;4.93;;
31270;SDS011;17904;47.420;9.310;2022-09-20T21:19:09;10.43;;;5.00;;
31270;SDS011;17904;47.420;9.310;2022-09-20T21:21:40;6.60;;;3.42;;
31270;SDS011;17904;47.420;9.310;2022-09-20T21:24:09;11.70;;;3.90;;
31270;SDS011;17904;47.420;9.310;2022-09-20T21:26:37;9.63;;;3.53;;
31270;SDS011;17904;47.420;9.310;2022-09-20T21:29:05;11.73;;;4.15;;
31270;SDS011;17904;47.420;9.310;2022-09-20T21:31:36;6.75;;;3.50;;
31270;SDS011;17904;47.420;9.310;2022-09-20T21:34:08;7.28;;;3.67;;
31270;SDS011;17904;47.420;9.310;2022-09-20T21:36:37;10.73;;;4.15;;
31270;SDS011;17904;47.420;9.310;2022-09-20T21:39:06;6.25;;;3.45;;
31270;SDS011;17904;47.420;9.310;2022-09-20T21:41:34;6.00;;;3.70;;
31270;SDS011;17904;47.420;9.310;2022-09-20T21:44:03;8.48;;;3.70;;
31270;SDS011;17904;47.420;9.310;2022-09-20T21:46:32;7.65;;;3.50;;